createdAt,value
2022-11-12T00:00:39.958Z,101252.06
2022-11-12T00:01:45.032Z,101253.13
2022-11-12T00:02:50.177Z,101253.13
2022-11-12T00:03:56.175Z,101257.66
2022-11-12T00:05:01.096Z,101266.60
2022-11-12T00:06:06.528Z,101266.60
2022-11-12T00:07:13.342Z,101253.53
2022-11-12T00:08:18.982Z,101253.53
2022-11-12T00:09:24.060Z,101256.02
2022-11-12T00:10:29.098Z,101259.34
2022-11-12T00:11:34.487Z,101252.92
2022-11-12T00:12:39.563Z,101252.72
2022-11-12T00:13:44.609Z,101261.42
2022-11-12T00:14:49.530Z,101254.36
2022-11-12T00:15:54.567Z,101259.75
2022-11-12T00:16:59.758Z,101258.53
2022-11-12T00:18:08.260Z,101258.53
2022-11-12T00:19:13.550Z,101257.67
2022-11-12T00:20:18.589Z,101262.05
2022-11-12T00:21:24.059Z,101261.22
2022-11-12T00:22:29.341Z,101258.53
2022-11-12T00:23:34.355Z,101259.34
2022-11-12T00:24:39.393Z,101259.34
2022-11-12T00:25:44.483Z,101262.05
2022-11-12T00:26:49.469Z,101261.22
2022-11-12T00:27:54.443Z,101261.22
2022-11-12T00:28:59.510Z,101271.59
2022-11-12T00:30:04.669Z,101271.59
2022-11-12T00:31:11.846Z,101272.20
2022-11-12T00:32:16.904Z,101269.72
2022-11-12T00:33:22.040Z,101274.28
2022-11-12T00:34:27.124Z,101265.34
2022-11-12T00:35:34.429Z,101268.05
2022-11-12T00:36:39.427Z,101268.05
2022-11-12T00:37:44.444Z,101272.61
2022-11-12T00:38:49.454Z,101262.65
2022-11-12T00:39:54.384Z,101269.72
2022-11-12T00:41:01.393Z,101262.45
2022-11-12T00:42:06.522Z,101262.45
2022-11-12T00:43:11.535Z,101265.76
2022-11-12T00:44:16.522Z,101259.14
2022-11-12T00:45:22.600Z,101259.14
2022-11-12T00:46:27.707Z,101268.05
2022-11-12T00:47:32.737Z,101268.05
2022-11-12T00:48:37.720Z,101265.16
2022-11-12T00:49:42.808Z,101265.16
2022-11-12T00:50:47.951Z,101267.45
2022-11-12T00:51:53.090Z,101261.03
2022-11-12T00:52:58.225Z,101261.03
2022-11-12T00:54:03.742Z,101261.03
2022-11-12T00:55:09.016Z,101272.02
2022-11-12T00:56:14.398Z,101272.02
2022-11-12T00:57:19.420Z,101263.92
2022-11-12T00:58:24.824Z,101272.84
2022-11-12T00:59:30.135Z,101266.83
2022-11-12T01:00:35.110Z,101272.22
2022-11-12T01:01:40.593Z,101270.34
2022-11-12T01:02:50.666Z,101270.34
2022-11-12T01:03:52.850Z,101266.63
2022-11-12T01:04:57.986Z,101266.63
2022-11-12T01:06:14.980Z,101266.42
2022-11-12T01:07:19.961Z,101268.09
2022-11-12T01:08:25.638Z,101260.00
2022-11-12T01:09:30.809Z,101269.73
2022-11-12T01:10:37.841Z,101272.43
2022-11-12T01:11:42.968Z,101264.34
2022-11-12T01:12:48.096Z,101266.42
2022-11-12T01:14:01.619Z,101270.14
2022-11-12T01:15:08.486Z,101266.83
2022-11-12T01:16:16.482Z,101266.83
2022-11-12T01:17:21.494Z,101259.14
2022-11-12T01:18:26.937Z,101259.14
2022-11-12T01:19:32.262Z,101259.97
2022-11-12T01:20:39.881Z,101259.97
2022-11-12T01:21:46.042Z,101253.75
2022-11-12T01:22:51.098Z,101252.73
2022-11-12T01:23:57.734Z,101252.73
2022-11-12T01:25:02.825Z,101254.37
2022-11-12T01:26:09.811Z,101251.05
2022-11-12T01:27:14.940Z,101246.69
2022-11-12T01:28:19.998Z,101246.69
2022-11-12T01:29:25.333Z,101249.38
2022-11-12T01:30:30.385Z,101252.28
2022-11-12T01:31:38.271Z,101252.72
2022-11-12T01:32:43.266Z,101252.06
2022-11-12T01:33:51.044Z,101253.94
2022-11-12T01:34:56.182Z,101253.94
2022-11-12T01:36:01.148Z,101260.36
2022-11-12T01:37:06.072Z,101259.74
2022-11-12T01:38:11.073Z,101259.74
2022-11-12T01:39:16.094Z,101258.72
2022-11-12T01:40:21.585Z,101258.72
2022-11-12T01:41:30.128Z,101263.45
2022-11-12T01:42:35.263Z,101273.63
2022-11-12T01:43:40.557Z,101264.72
2022-11-12T01:44:48.125Z,101262.42
2022-11-12T01:45:54.173Z,101267.39
2022-11-12T01:47:02.118Z,101267.39
2022-11-12T01:48:07.250Z,101271.31
2022-11-12T01:49:15.205Z,101269.64
2022-11-12T01:50:29.031Z,101265.30
2022-11-12T01:51:39.889Z,101268.20
2022-11-12T01:52:53.276Z,101270.23
2022-11-12T01:54:01.224Z,101270.23
2022-11-12T01:55:15.248Z,101273.98
2022-11-12T01:56:22.974Z,101270.64
2022-11-12T01:57:34.784Z,101265.45
2022-11-12T01:58:39.873Z,101262.95
2022-11-12T01:59:47.791Z,101262.95
2022-11-12T02:00:53.307Z,101257.57
2022-11-12T02:01:58.920Z,101257.37
2022-11-12T02:03:08.378Z,101253.66
2022-11-12T02:04:14.241Z,101252.18
2022-11-12T02:05:20.097Z,101253.86
2022-11-12T02:06:26.157Z,101254.05
2022-11-12T02:07:33.801Z,101260.47
2022-11-12T02:08:40.065Z,101243.48
2022-11-12T02:09:45.076Z,101246.99
2022-11-12T02:10:51.195Z,101253.23
2022-11-12T02:11:56.153Z,101253.23
2022-11-12T02:13:19.446Z,101250.54
2022-11-12T02:14:24.504Z,101250.54
2022-11-12T02:15:30.688Z,101248.05
2022-11-12T02:16:44.444Z,101254.25
2022-11-12T02:17:49.446Z,101254.25
2022-11-12T02:18:54.418Z,101254.25
2022-11-12T02:20:03.923Z,101252.61
2022-11-12T02:21:10.545Z,101250.13
2022-11-12T02:22:15.519Z,101250.13
2022-11-12T02:23:20.441Z,101256.33
2022-11-12T02:24:28.383Z,101254.45
2022-11-12T02:25:34.849Z,101253.64
2022-11-12T02:26:46.182Z,101254.66
2022-11-12T02:27:54.793Z,101263.80
2022-11-12T02:28:59.857Z,101263.80
2022-11-12T02:30:05.196Z,101257.75
2022-11-12T02:31:10.194Z,101264.19
2022-11-12T02:32:15.975Z,101260.84
2022-11-12T02:33:20.982Z,101263.54
2022-11-12T02:34:25.960Z,101265.61
2022-11-12T02:35:31.343Z,101268.30
2022-11-12T02:36:36.308Z,101271.00
2022-11-12T02:37:41.364Z,101268.11
2022-11-12T02:38:46.431Z,101271.62
2022-11-12T02:39:51.483Z,101266.03
2022-11-12T02:40:56.401Z,101268.73
2022-11-12T02:42:01.582Z,101262.52
2022-11-12T02:43:06.655Z,101259.82
2022-11-12T02:44:11.887Z,101261.50
2022-11-12T02:45:17.788Z,101265.01
2022-11-12T02:46:22.859Z,101265.83
2022-11-12T02:47:27.918Z,101256.53
2022-11-12T02:48:32.906Z,101261.92
2022-11-12T02:49:37.829Z,101257.34
2022-11-12T02:50:42.866Z,101259.22
2022-11-12T02:51:47.882Z,101259.22
2022-11-12T02:52:52.919Z,101254.86
2022-11-12T02:53:57.940Z,101254.86
2022-11-12T02:55:02.952Z,101253.02
2022-11-12T02:56:08.179Z,101252.16
2022-11-12T02:57:13.168Z,101253.41
2022-11-12T02:58:18.437Z,101258.80
2022-11-12T02:59:23.490Z,101258.80
2022-11-12T03:00:48.528Z,101257.95
2022-11-12T03:03:32.026Z,101257.75
2022-11-12T03:04:38.654Z,101258.80
2022-11-12T03:05:43.754Z,101255.45
2022-11-12T03:06:48.769Z,101250.27
2022-11-12T03:07:55.470Z,101250.27
2022-11-12T03:09:00.379Z,101262.09
2022-11-12T03:10:06.541Z,101254.83
2022-11-12T03:11:15.135Z,101258.34
2022-11-12T03:12:20.200Z,101261.89
2022-11-12T03:13:25.109Z,101252.96
2022-11-12T03:14:30.091Z,101252.96
2022-11-12T03:15:35.532Z,101257.13
2022-11-12T03:16:40.561Z,101253.61
2022-11-12T03:17:46.017Z,101252.56
2022-11-12T03:18:51.145Z,101252.36
2022-11-12T03:19:56.153Z,101252.36
2022-11-12T03:21:01.157Z,101255.05
2022-11-12T03:22:06.151Z,101254.86
2022-11-12T03:23:12.658Z,101251.14
2022-11-12T03:24:17.717Z,101256.33
2022-11-12T03:25:22.881Z,101259.64
2022-11-12T03:26:31.691Z,101259.64
2022-11-12T03:27:34.377Z,101261.11
2022-11-12T03:28:39.302Z,101260.72
2022-11-12T03:29:44.514Z,101254.07
2022-11-12T03:30:50.061Z,101264.66
2022-11-12T03:31:55.180Z,101261.76
2022-11-12T03:33:00.340Z,101260.53
2022-11-12T03:34:05.274Z,101260.53
2022-11-12T03:35:10.766Z,101255.56
2022-11-12T03:36:15.942Z,101255.56
2022-11-12T03:37:21.116Z,101252.26
2022-11-12T03:38:26.762Z,101252.26
2022-11-12T03:39:31.938Z,101254.75
2022-11-12T03:40:37.058Z,101259.74
2022-11-12T03:41:42.047Z,101257.87
2022-11-12T03:42:48.476Z,101262.03
2022-11-12T03:43:53.400Z,101248.55
2022-11-12T03:44:58.347Z,101248.55
2022-11-12T03:46:03.760Z,101245.86
2022-11-12T03:47:08.738Z,101245.04
2022-11-12T03:48:13.865Z,101251.45
2022-11-12T03:49:18.919Z,101251.45
2022-11-12T03:50:27.229Z,101240.67
2022-11-12T03:51:32.159Z,101246.87
2022-11-12T03:52:37.349Z,101244.19
2022-11-12T03:53:42.392Z,101244.84
2022-11-12T03:54:47.457Z,101244.84
2022-11-12T03:55:52.458Z,101246.48
2022-11-12T03:56:57.463Z,101250.02
2022-11-12T03:58:02.466Z,101256.23
2022-11-12T03:59:07.699Z,101256.23
2022-11-12T04:00:14.506Z,101256.23
2022-11-12T04:01:19.470Z,101246.07
2022-11-12T04:02:26.197Z,101246.07
2022-11-12T04:03:31.192Z,101243.17
2022-11-12T04:04:54.375Z,101239.86
2022-11-12T04:06:17.481Z,101246.27
2022-11-12T04:07:40.067Z,101246.27
2022-11-12T04:08:45.119Z,101241.48
2022-11-12T04:09:50.041Z,101241.48
2022-11-12T04:10:56.742Z,101252.27
2022-11-12T04:12:03.353Z,101252.27
2022-11-12T04:13:25.902Z,101253.33
2022-11-12T04:14:30.871Z,101253.33
2022-11-12T04:15:35.945Z,101248.95
2022-11-12T04:16:58.577Z,101253.53
2022-11-12T04:18:20.981Z,101242.95
2022-11-12T04:19:43.953Z,101238.17
2022-11-12T04:21:08.617Z,101238.17
2022-11-12T04:22:13.805Z,101240.67
2022-11-12T04:23:18.720Z,101240.67
2022-11-12T04:24:50.151Z,101246.87
2022-11-12T04:26:13.087Z,101246.87
2022-11-12T04:27:24.233Z,101241.48
2022-11-12T04:28:29.355Z,101248.55
2022-11-12T04:29:52.716Z,101248.55
2022-11-12T04:30:57.944Z,101242.34
2022-11-12T04:32:02.975Z,101244.84
2022-11-12T04:33:07.940Z,101242.14
2022-11-12T04:34:30.582Z,101234.05
2022-11-12T04:35:35.569Z,101246.48
2022-11-12T04:36:40.618Z,101246.48
2022-11-12T04:37:46.187Z,101247.13
2022-11-12T04:38:51.054Z,101251.26
2022-11-12T04:39:56.036Z,101251.26
2022-11-12T04:41:18.624Z,101251.05
2022-11-12T04:42:41.400Z,101251.05
2022-11-12T04:44:04.282Z,101245.67
2022-11-12T04:45:12.069Z,101245.67
2022-11-12T04:46:17.222Z,101243.37
2022-11-12T04:47:22.107Z,101247.95
2022-11-12T04:48:27.662Z,101235.50
2022-11-12T04:49:32.947Z,101246.28
2022-11-12T04:50:38.676Z,101246.28
2022-11-12T04:52:01.365Z,101243.18
2022-11-12T04:53:06.565Z,101243.18
2022-11-12T04:54:11.493Z,101234.89
2022-11-12T04:55:16.514Z,101231.98
2022-11-12T04:56:22.407Z,101231.98
2022-11-12T04:57:28.272Z,101218.95
2022-11-12T04:58:33.252Z,101218.95
2022-11-12T04:59:38.248Z,101218.54
2022-11-12T05:00:43.369Z,101212.13
2022-11-12T05:01:48.271Z,101224.38
2022-11-12T05:02:53.328Z,101226.22
2022-11-12T05:03:58.350Z,101226.22
2022-11-12T05:05:03.283Z,101226.22
2022-11-12T05:06:10.546Z,101226.22
2022-11-12T05:07:16.524Z,101224.98
2022-11-12T05:08:21.492Z,101224.98
2022-11-12T05:09:28.771Z,101225.40
2022-11-12T05:10:33.911Z,101234.52
2022-11-12T05:11:38.821Z,101234.52
2022-11-12T05:12:44.210Z,101239.91
2022-11-12T05:13:49.144Z,101239.91
2022-11-12T05:14:54.065Z,101245.95
2022-11-12T05:15:59.063Z,101248.23
2022-11-12T05:17:04.121Z,101244.69
2022-11-12T05:18:09.197Z,101242.84
2022-11-12T05:19:14.415Z,101242.84
2022-11-12T05:20:19.567Z,101246.77
2022-11-12T05:21:43.687Z,101246.77
2022-11-12T05:23:04.919Z,101251.75
2022-11-12T05:23:55.494Z,101258.00
2022-11-12T05:25:00.480Z,101256.12
2022-11-12T05:26:05.628Z,101248.23
2022-11-12T05:27:16.047Z,101248.23
2022-11-12T05:28:21.033Z,101250.11
2022-11-12T05:29:26.133Z,101260.45
2022-11-12T05:30:31.136Z,101260.45
2022-11-12T05:31:36.634Z,101260.25
2022-11-12T05:32:41.556Z,101254.45
2022-11-12T05:33:46.824Z,101257.77
2022-11-12T05:34:51.975Z,101257.77
2022-11-12T05:35:58.506Z,101256.53
2022-11-12T05:37:07.950Z,101256.53
2022-11-12T05:38:12.875Z,101255.92
2022-11-12T05:39:17.883Z,101253.84
2022-11-12T05:40:23.857Z,101256.12
2022-11-12T05:41:44.993Z,101256.12
2022-11-12T05:42:35.815Z,101254.69
2022-11-12T05:43:40.995Z,101264.22
2022-11-12T05:44:45.992Z,101260.28
2022-11-12T05:45:51.051Z,101260.28
2022-11-12T05:46:56.208Z,101264.86
2022-11-12T05:48:01.328Z,101270.87
2022-11-12T05:49:06.285Z,101262.36
2022-11-12T05:50:11.926Z,101262.36
2022-11-12T05:51:17.051Z,101260.72
2022-11-12T05:52:21.950Z,101260.06
2022-11-12T05:53:27.058Z,101263.20
2022-11-12T05:54:32.088Z,101266.51
2022-11-12T05:55:37.357Z,101266.91
2022-11-12T05:56:42.762Z,101266.91
2022-11-12T05:57:47.739Z,101269.41
2022-11-12T05:58:52.942Z,101262.56
2022-11-12T05:59:57.944Z,101263.59
2022-11-12T06:01:03.450Z,101260.89
2022-11-12T06:02:08.456Z,101267.96
2022-11-12T06:03:14.458Z,101267.96
2022-11-12T06:04:23.575Z,101264.84
2022-11-12T06:05:28.629Z,101275.23
2022-11-12T06:06:33.761Z,101269.41
2022-11-12T06:07:38.887Z,101271.70
2022-11-12T06:08:44.135Z,101272.91
2022-11-12T06:09:49.195Z,101263.79
2022-11-12T06:10:55.704Z,101261.70
2022-11-12T06:12:00.807Z,101263.16
2022-11-12T06:13:05.864Z,101261.89
2022-11-12T06:14:10.950Z,101261.47
2022-11-12T06:15:16.011Z,101261.47
2022-11-12T06:16:21.121Z,101252.34
2022-11-12T06:17:26.138Z,101255.86
2022-11-12T06:18:31.322Z,101252.95
2022-11-12T06:19:36.363Z,101249.22
2022-11-12T06:20:41.818Z,101249.22
2022-11-12T06:21:46.965Z,101244.42
2022-11-12T06:22:52.716Z,101244.42
2022-11-12T06:24:00.108Z,101239.02
2022-11-12T06:25:06.358Z,101240.27
2022-11-12T06:26:11.517Z,101240.27
2022-11-12T06:27:16.443Z,101249.59
2022-11-12T06:28:21.433Z,101256.45
2022-11-12T06:29:26.414Z,101252.51
2022-11-12T06:30:31.447Z,101251.45
2022-11-12T06:31:36.581Z,101259.73
2022-11-12T06:32:41.587Z,101259.73
2022-11-12T06:33:47.315Z,101250.57
2022-11-12T06:34:54.079Z,101255.33
2022-11-12T06:36:05.080Z,101250.11
2022-11-12T06:37:10.064Z,101250.11
2022-11-12T06:38:15.810Z,101242.81
2022-11-12T06:39:21.598Z,101252.77
2022-11-12T06:40:26.692Z,101256.30
2022-11-12T06:41:31.603Z,101256.91
2022-11-12T06:42:36.609Z,101260.84
2022-11-12T06:43:42.285Z,101260.84
2022-11-12T06:44:47.254Z,101260.42
2022-11-12T06:45:54.198Z,101261.62
2022-11-12T06:46:59.173Z,101257.20
2022-11-12T06:48:04.310Z,101254.70
2022-11-12T06:49:09.441Z,101254.70
2022-11-12T06:50:14.626Z,101246.44
2022-11-12T06:51:22.599Z,101248.06
2022-11-12T06:52:27.810Z,101248.06
2022-11-12T06:53:32.982Z,101244.42
2022-11-12T06:54:38.031Z,101238.14
2022-11-12T06:55:43.215Z,101238.14
2022-11-12T06:56:48.253Z,101248.69
2022-11-12T06:57:56.915Z,101242.13
2022-11-12T06:59:02.054Z,101242.13
2022-11-12T07:00:08.787Z,101240.59
2022-11-12T07:01:16.905Z,101239.10
2022-11-12T07:02:21.855Z,101239.10
2022-11-12T07:03:26.952Z,101229.02
2022-11-12T07:04:31.875Z,101233.91
2022-11-12T07:05:40.487Z,101231.75
2022-11-12T07:06:45.979Z,101226.63
2022-11-12T07:07:50.919Z,101218.05
2022-11-12T07:08:56.136Z,101218.05
2022-11-12T07:10:01.224Z,101224.45
2022-11-12T07:11:07.164Z,101221.07
2022-11-12T07:12:12.265Z,101224.14
2022-11-12T07:13:19.020Z,101229.12
2022-11-12T07:14:24.329Z,101219.91
2022-11-12T07:15:29.241Z,101223.02
2022-11-12T07:16:35.402Z,101223.02
2022-11-12T07:17:40.388Z,101218.45
2022-11-12T07:18:46.817Z,101225.45
2022-11-12T07:19:53.395Z,101225.45
2022-11-12T07:21:02.940Z,101220.13
2022-11-12T07:22:07.884Z,101222.34
2022-11-12T07:23:13.011Z,101222.34
2022-11-12T07:24:18.171Z,101224.88
2022-11-12T07:25:23.170Z,101224.88
2022-11-12T07:26:28.817Z,101231.06
2022-11-12T07:27:34.391Z,101228.12
2022-11-12T07:28:39.554Z,101226.57
2022-11-12T07:29:48.961Z,101226.57
2022-11-12T07:31:01.841Z,101232.23
2022-11-12T07:32:07.556Z,101220.69
2022-11-12T07:33:12.586Z,101220.69
2022-11-12T07:34:17.835Z,101226.57
2022-11-12T07:35:23.131Z,101226.57
2022-11-12T07:36:28.496Z,101232.83
2022-11-12T07:37:35.803Z,101232.83
2022-11-12T07:38:43.939Z,101224.06
2022-11-12T07:39:48.921Z,101227.16
2022-11-12T07:40:54.061Z,101227.16
2022-11-12T07:41:59.198Z,101225.97
2022-11-12T07:43:06.944Z,101218.02
2022-11-12T07:44:12.342Z,101217.77
2022-11-12T07:45:17.675Z,101217.77
2022-11-12T07:46:27.818Z,101216.27
2022-11-12T07:47:32.836Z,101216.27
2022-11-12T07:48:38.165Z,101220.02
2022-11-12T07:49:43.513Z,101215.73
2022-11-12T07:50:48.503Z,101215.73
2022-11-12T07:51:53.661Z,101217.64
2022-11-12T07:53:00.468Z,101213.27
2022-11-12T07:54:05.681Z,101213.27
2022-11-12T07:55:11.155Z,101212.64
2022-11-12T07:56:19.863Z,101212.64
2022-11-12T07:57:27.674Z,101215.45
2022-11-12T07:58:34.563Z,101215.45
2022-11-12T07:59:45.700Z,101215.12
2022-11-12T08:00:46.206Z,101221.95
2022-11-12T08:01:51.381Z,101226.15
2022-11-12T08:02:56.411Z,101226.53
2022-11-12T08:04:03.063Z,101228.00
2022-11-12T08:05:14.495Z,101228.00
2022-11-12T08:06:15.661Z,101230.00
2022-11-12T08:07:20.823Z,101230.00
2022-11-12T08:08:26.251Z,101232.33
2022-11-12T08:09:31.593Z,101238.83
2022-11-12T08:10:36.673Z,101233.45
2022-11-12T08:11:42.431Z,101228.86
2022-11-12T08:12:47.417Z,101235.16
2022-11-12T08:13:53.208Z,101235.16
2022-11-12T08:14:58.458Z,101235.55
2022-11-12T08:16:05.772Z,101235.55
2022-11-12T08:17:10.786Z,101242.38
2022-11-12T08:18:16.067Z,101242.38
2022-11-12T08:19:21.527Z,101234.11
2022-11-12T08:20:27.442Z,101234.11
2022-11-12T08:21:32.588Z,101230.77
2022-11-12T08:22:37.615Z,101236.17
2022-11-12T08:23:42.858Z,101236.17
2022-11-12T08:24:47.764Z,101232.09
2022-11-12T08:25:52.719Z,101238.41
2022-11-12T08:26:57.881Z,101231.44
2022-11-12T08:28:02.946Z,101223.61
2022-11-12T08:29:09.094Z,101223.61
2022-11-12T08:30:18.050Z,101220.16
2022-11-12T08:31:27.576Z,101225.75
2022-11-12T08:32:36.630Z,101224.20
2022-11-12T08:33:44.732Z,101224.20
2022-11-12T08:34:49.780Z,101222.56
2022-11-12T08:35:57.986Z,101222.56
2022-11-12T08:37:03.880Z,101219.27
2022-11-12T08:38:10.838Z,101221.42
2022-11-12T08:39:19.342Z,101221.42
2022-11-12T08:40:24.009Z,101216.72
2022-11-12T08:41:34.673Z,101215.03
2022-11-12T08:42:39.868Z,101218.14
2022-11-12T08:43:45.361Z,101217.81
2022-11-12T08:44:50.893Z,101217.17
2022-11-12T08:45:56.256Z,101210.63
2022-11-12T08:47:01.620Z,101210.63
2022-11-12T08:48:14.294Z,101217.14
2022-11-12T08:49:19.464Z,101218.74
2022-11-12T08:50:24.520Z,101213.54
2022-11-12T08:51:32.588Z,101222.55
2022-11-12T08:52:37.629Z,101218.42
2022-11-12T08:53:45.450Z,101218.39
2022-11-12T08:54:50.515Z,101214.88
2022-11-12T08:55:57.515Z,101217.09
2022-11-12T08:57:05.061Z,101217.09
2022-11-12T08:58:11.161Z,101208.89
2022-11-12T08:59:16.684Z,101207.61
2022-11-12T09:00:24.861Z,101207.61
2022-11-12T09:01:29.900Z,101208.16
2022-11-12T09:02:34.854Z,101208.48
2022-11-12T09:03:41.472Z,101214.81
2022-11-12T09:04:46.468Z,101204.98
2022-11-12T09:05:53.568Z,101206.11
2022-11-12T09:07:05.187Z,101206.11
2022-11-12T09:08:08.947Z,101199.56
2022-11-12T09:09:17.020Z,101209.41
2022-11-12T09:10:23.777Z,101194.68
2022-11-12T09:11:29.468Z,101194.68
2022-11-12T09:12:34.618Z,101202.86
2022-11-12T09:13:46.762Z,101202.86
2022-11-12T09:14:56.128Z,101200.11
2022-11-12T09:16:05.817Z,101193.52
2022-11-12T09:17:14.266Z,101193.52
2022-11-12T09:18:20.786Z,101191.47
2022-11-12T09:19:29.459Z,101191.47
2022-11-12T09:20:36.770Z,101191.84
2022-11-12T09:21:41.750Z,101191.84
2022-11-12T09:22:47.011Z,101192.89
2022-11-12T09:23:54.176Z,101191.50
2022-11-12T09:24:59.037Z,101191.50
2022-11-12T09:26:07.513Z,101204.08
2022-11-12T09:27:13.068Z,101199.14
2022-11-12T09:28:21.069Z,101198.78
2022-11-12T09:29:26.174Z,101188.86
2022-11-12T09:30:31.376Z,101188.86
2022-11-12T09:31:36.407Z,101196.20
2022-11-12T09:32:41.662Z,101189.48
2022-11-12T09:33:46.999Z,101189.48
2022-11-12T09:34:51.920Z,101190.55
2022-11-12T09:35:57.775Z,101194.98
2022-11-12T09:37:02.841Z,101194.98
2022-11-12T09:38:07.839Z,101197.97
2022-11-12T09:39:13.049Z,101199.67
2022-11-12T09:40:20.698Z,101199.67
2022-11-12T09:41:42.812Z,101200.78
2022-11-12T09:42:50.886Z,101200.78
2022-11-12T09:44:01.810Z,101195.64
2022-11-12T09:45:12.644Z,101197.83
2022-11-12T09:46:29.702Z,101186.02
2022-11-12T09:47:40.426Z,101186.02
2022-11-12T09:48:48.463Z,101192.77
2022-11-12T09:50:17.139Z,101191.02
2022-11-12T09:51:34.235Z,101205.01
2022-11-12T09:52:40.702Z,101205.01
2022-11-12T09:53:57.881Z,101197.64
2022-11-12T09:55:15.486Z,101199.09
2022-11-12T09:56:23.009Z,101196.09
2022-11-12T09:57:28.166Z,101196.09
2022-11-12T09:58:33.328Z,101195.28
2022-11-12T09:59:41.376Z,101195.28
2022-11-12T10:01:01.564Z,101203.47
2022-11-12T10:02:24.595Z,101198.11
2022-11-12T10:03:41.818Z,101198.11
2022-11-12T10:05:14.019Z,101202.28
2022-11-12T10:06:25.161Z,101194.65
2022-11-12T10:07:39.247Z,101190.89
2022-11-12T10:08:55.840Z,101186.83
2022-11-12T10:10:06.912Z,101192.58
2022-11-12T10:12:47.039Z,101178.94
2022-11-12T10:14:00.922Z,101181.55
2022-11-12T10:15:46.238Z,101176.56
2022-11-12T10:16:56.813Z,101176.56
2022-11-12T10:18:37.042Z,101182.70
2022-11-12T10:19:45.453Z,101180.48
2022-11-12T10:20:56.457Z,101180.48
2022-11-12T10:22:04.977Z,101174.12
2022-11-12T10:23:18.692Z,101174.12
2022-11-12T10:24:25.046Z,101178.73
2022-11-12T10:25:30.553Z,101171.44
2022-11-12T10:26:35.687Z,101171.47
2022-11-12T10:27:43.192Z,101171.47
2022-11-12T10:28:51.703Z,101163.84
2022-11-12T10:30:05.536Z,101159.52
2022-11-12T10:31:16.602Z,101159.00
2022-11-12T10:32:21.620Z,101155.20
2022-11-12T10:33:28.069Z,101155.20
2022-11-12T10:34:33.189Z,101156.27
2022-11-12T10:35:38.759Z,101154.02
2022-11-12T10:37:04.760Z,101148.52
2022-11-12T13:52:43.159Z,101066.10
2022-11-12T13:53:48.809Z,101055.47
2022-11-12T13:56:32.852Z,101072.22
2022-11-12T13:57:37.903Z,101070.66
2022-11-12T13:58:44.518Z,101076.66
2022-11-12T13:59:49.876Z,101076.66
2022-11-12T14:01:01.059Z,101076.41
2022-11-12T14:02:08.874Z,101076.91
2022-11-12T14:03:16.809Z,101071.47
2022-11-12T14:04:25.272Z,101075.03
2022-11-12T14:05:33.378Z,101075.03
2022-11-12T14:06:41.627Z,101081.55
2022-11-12T14:08:01.442Z,101073.87
2022-11-12T14:09:28.992Z,101069.49
2022-11-12T14:10:46.089Z,101072.22
2022-11-12T14:12:10.328Z,101081.48
2022-11-12T14:13:30.047Z,101071.08
2022-11-12T14:14:40.960Z,101076.99
2022-11-12T14:16:08.358Z,101076.99
2022-11-12T14:17:43.209Z,101081.02
2022-11-12T14:19:16.999Z,101080.45
2022-11-12T14:20:37.294Z,101068.16
2022-11-12T14:21:42.649Z,101068.16
2022-11-12T14:22:49.456Z,101062.71
2022-11-12T14:23:55.041Z,101064.62
2022-11-12T14:25:04.409Z,101069.25
2022-11-12T14:26:12.429Z,101069.25
2022-11-12T14:27:29.361Z,101065.44
2022-11-12T14:28:36.806Z,101065.44
2022-11-12T14:29:43.800Z,101070.31
2022-11-12T14:30:48.486Z,101078.23
2022-11-12T14:32:02.975Z,101079.29
2022-11-12T14:33:12.077Z,101079.29
2022-11-12T14:34:26.140Z,101079.29
2022-11-12T14:35:34.260Z,101077.66
2022-11-12T15:22:01.768Z,101070.00
2022-11-12T15:23:07.249Z,101057.50
2022-11-12T15:24:30.274Z,101057.13
2022-11-12T15:25:37.373Z,101057.13
2022-11-12T15:26:45.553Z,101065.05
2022-11-12T15:27:51.564Z,101054.17
2022-11-12T15:29:04.962Z,101054.17
2022-11-12T15:30:18.817Z,101055.59
2022-11-12T15:31:24.201Z,101058.88
2022-11-12T15:32:32.335Z,101053.45
2022-11-12T15:33:37.402Z,101060.55
2022-11-12T15:34:46.958Z,101060.55
2022-11-12T15:35:58.030Z,101060.78
2022-11-12T15:37:06.222Z,101052.88
2022-11-12T15:38:32.322Z,101052.88
2022-11-12T15:39:43.049Z,101058.31
2022-11-12T15:40:56.082Z,101054.77
2022-11-12T15:42:02.162Z,101049.58
2022-11-12T15:43:14.432Z,101049.58
2022-11-12T15:44:19.419Z,101049.34
2022-11-12T15:45:24.658Z,101049.34
2022-11-12T15:46:29.957Z,101056.41
2022-11-12T15:47:34.969Z,101049.34
2022-11-12T15:48:40.149Z,101048.49
2022-11-12T15:49:53.901Z,101052.30
2022-11-12T15:51:00.716Z,101049.58
2022-11-12T15:52:06.046Z,101049.58
2022-11-12T15:53:11.297Z,101052.30
2022-11-12T15:54:16.511Z,101056.08
2022-11-12T15:55:21.863Z,101056.08
2022-11-12T15:56:27.103Z,101046.50
2022-11-12T15:57:35.075Z,101046.50
2022-11-12T15:58:40.831Z,101037.20
2022-11-12T15:59:48.338Z,101043.45
2022-11-12T16:00:53.497Z,101036.96
2022-11-12T16:01:58.771Z,101039.68
2022-11-12T16:03:19.068Z,101039.68
2022-11-12T16:04:24.319Z,101032.58
2022-11-12T16:05:29.406Z,101027.72
2022-11-12T16:06:34.548Z,101027.72
2022-11-12T16:07:39.695Z,101027.39
2022-11-12T16:08:44.781Z,101027.39
2022-11-12T16:09:49.899Z,101020.08
2022-11-12T16:10:55.843Z,101021.38
2022-11-12T16:12:01.222Z,101021.38
2022-11-12T16:13:08.307Z,101023.28
2022-11-12T16:14:15.740Z,101023.28
2022-11-12T16:15:24.150Z,101031.92
2022-11-12T16:16:29.437Z,101031.92
2022-11-12T16:17:34.474Z,101030.27
2022-11-12T16:18:39.661Z,101038.99
2022-11-12T16:19:44.811Z,101039.84
2022-11-12T16:20:50.606Z,101043.37
2022-11-12T16:21:55.735Z,101038.75
2022-11-12T16:23:01.262Z,101038.75
2022-11-12T16:24:08.337Z,101043.13
2022-11-12T16:25:14.025Z,101033.67
2022-11-12T16:26:22.090Z,101033.67
2022-11-12T16:27:27.232Z,101033.67
2022-11-12T16:28:32.321Z,101029.30
2022-11-12T16:29:37.685Z,101029.30
2022-11-12T16:30:42.866Z,101030.11
2022-11-12T16:31:47.864Z,101031.20
2022-11-12T16:32:53.038Z,101031.20
2022-11-12T16:33:58.174Z,101031.20
2022-11-12T16:35:03.229Z,101033.91
2022-11-12T16:36:14.202Z,101036.96
2022-11-12T16:39:29.646Z,101042.16
2022-11-12T16:40:36.255Z,101042.16
2022-11-12T16:41:41.415Z,101041.31
2022-11-12T16:42:46.770Z,101039.92
2022-11-12T16:43:53.432Z,101042.64
2022-11-12T16:44:58.505Z,101042.64
2022-11-12T16:46:05.050Z,101047.27
2022-11-12T16:47:12.171Z,101047.27
2022-11-12T16:48:22.813Z,101055.66
2022-11-12T16:49:32.144Z,101055.66
2022-11-12T16:50:36.007Z,101042.07
2022-11-12T16:51:41.421Z,101046.09
2022-11-12T16:52:49.041Z,101052.58
2022-11-12T16:53:53.383Z,101049.86
2022-11-12T16:55:04.130Z,101051.20
2022-11-12T16:56:05.261Z,101050.34